Time,TemperatureF,DewpointF,PressureIn,WindDirection,WindDirectionDegrees,WindSpeedMPH,WindSpeedGustMPH,Humidity,HourlyPrecipIn,Conditions,Clouds,dailyrainin,SoftwareType,DateUTC
2014-11-26 00:04:00,43.5,41.9,30.38,SSW,196,0.0,0.0,94,0.00,,,0.00,Wunderground v.1.13,2014-11-26 08:04:00,
2014-11-26 00:14:00,43.6,42.0,30.37,SSW,196,0.0,0.0,94,0.00,,,0.00,Wunderground v.1.13,2014-11-26 08:14:00,
2014-11-26 00:19:00,43.6,42.0,30.37,SSW,196,0.0,0.0,94,0.00,,,0.00,Wunderground v.1.13,2014-11-26 08:19:00,
2014-11-26 00:29:00,43.7,42.1,30.37,SSW,196,0.0,0.0,94,0.00,,,0.00,Wunderground v.1.13,2014-11-26 08:29:00,
2014-11-26 00:34:00,43.7,42.1,30.37,SSW,195,0.0,0.0,94,0.00,,,0.00,Wunderground v.1.13,2014-11-26 08:34:00,
2014-11-26 00:44:00,43.8,42.2,30.36,SSW,195,0.0,0.0,94,0.00,,,0.00,Wunderground v.1.13,2014-11-26 08:44:00,
2014-11-26 00:54:00,43.8,42.2,30.36,SSW,196,0.0,0.0,94,0.00,,,0.00,Wunderground v.1.13,2014-11-26 08:54:00,
2014-11-26 01:04:00,43.8,42.2,30.36,SSW,195,0.0,0.0,94,0.00,,,0.00,Wunderground v.1.13,2014-11-26 09:04:00,
2014-11-26 01:14:00,43.9,42.3,30.36,SSW,195,0.0,0.0,94,0.00,,,0.00,Wunderground v.1.13,2014-11-26 09:14:00,
2014-11-26 01:24:00,44.0,42.4,30.36,SSW,195,0.0,0.0,94,0.00,,,0.00,Wunderground v.1.13,2014-11-26 09:24:00,
2014-11-26 01:34:00,44.0,42.4,30.36,SSW,196,0.0,0.0,94,0.00,,,0.00,Wunderground v.1.13,2014-11-26 09:34:00,
2014-11-26 01:44:00,44.1,42.5,30.36,SSW,195,0.0,0.0,94,0.00,,,0.00,Wunderground v.1.13,2014-11-26 09:44:00,
2014-11-26 01:54:00,44.1,42.5,30.36,SSW,196,0.0,0.0,94,0.00,,,0.00,Wunderground v.1.13,2014-11-26 09:54:00,
2014-11-26 01:59:00,44.2,42.6,30.36,SSW,195,0.0,0.0,94,0.00,,,0.00,Wunderground v.1.13,2014-11-26 09:59:00,
2014-11-26 02:04:00,44.3,42.7,30.36,SSW,196,0.0,0.0,94,0.00,,,0.00,Wunderground v.1.13,2014-11-26 10:04:00,
2014-11-26 02:14:00,44.4,42.8,30.36,SSW,195,0.0,0.0,94,0.00,,,0.00,Wunderground v.1.13,2014-11-26 10:14:00,
2014-11-26 02:19:00,44.5,42.9,30.36,SSW,196,0.0,0.0,94,0.00,,,0.00,Wunderground v.1.13,2014-11-26 10:19:00,
2014-11-26 02:29:00,44.5,42.9,30.36,SSW,196,0.0,0.0,94,0.00,,,0.00,Wunderground v.1.13,2014-11-26 10:29:00,
2014-11-26 02:39:00,44.6,43.0,30.36,SSW,196,0.0,1.0,94,0.00,,,0.00,Wunderground v.1.13,2014-11-26 10:39:00,
2014-11-26 02:49:00,44.7,43.1,30.36,SSW,195,0.0,0.0,94,0.00,,,0.00,Wunderground v.1.13,2014-11-26 10:49:00,
2014-11-26 02:59:00,44.6,43.0,30.35,SSW,196,0.0,0.0,94,0.00,,,0.00,Wunderground v.1.13,2014-11-26 10:59:00,
2014-11-26 03:04:00,44.6,43.0,30.35,SSW,196,0.0,0.0,94,0.00,,,0.00,Wunderground v.1.13,2014-11-26 11:04:00,
2014-11-26 03:14:00,44.7,43.1,30.35,SSW,195,0.0,0.0,94,0.00,,,0.00,Wunderground v.1.13,2014-11-26 11:14:00,
2014-11-26 03:19:00,44.7,43.1,30.35,SSW,195,0.0,0.0,94,0.00,,,0.00,Wunderground v.1.13,2014-11-26 11:19:00,
2014-11-26 03:29:00,44.7,43.1,30.34,SSW,195,0.0,0.0,94,0.00,,,0.00,Wunderground v.1.13,2014-11-26 11:29:00,
2014-11-26 03:34:00,44.7,43.1,30.34,SSW,196,0.0,0.0,94,0.00,,,0.00,Wunderground v.1.13,2014-11-26 11:34:00,
2014-11-26 03:44:00,44.7,43.1,30.33,SSW,196,0.0,0.0,94,0.00,,,0.00,Wunderground v.1.13,2014-11-26 11:44:00,
2014-11-26 03:54:00,44.6,43.0,30.33,SSW,195,0.0,1.0,94,0.00,,,0.00,Wunderground v.1.13,2014-11-26 11:54:00,
2014-11-26 04:04:00,44.4,42.8,30.33,SSW,196,0.0,2.0,94,0.00,,,0.00,Wunderground v.1.13,2014-11-26 12:04:00,
2014-11-26 04:09:00,44.4,42.8,30.33,SSW,195,0.0,2.0,94,0.00,,,0.00,Wunderground v.1.13,2014-11-26 12:09:00,
2014-11-26 04:19:00,44.4,42.8,30.33,SSW,196,0.0,2.0,94,0.00,,,0.00,Wunderground v.1.13,2014-11-26 12:19:00,
2014-11-26 04:29:00,44.3,42.7,30.32,SSW,195,0.0,2.0,94,0.00,,,0.00,Wunderground v.1.13,2014-11-26 12:29:00,
2014-11-26 04:39:00,44.3,42.7,30.32,SSW,196,0.0,2.0,94,0.00,,,0.00,Wunderground v.1.13,2014-11-26 12:39:00,
2014-11-26 04:49:00,44.3,42.7,30.32,SSW,195,0.0,2.0,94,0.00,,,0.00,Wunderground v.1.13,2014-11-26 12:49:00,
2014-11-26 04:54:00,44.4,42.8,30.32,SSW,196,0.0,2.0,94,0.00,,,0.00,Wunderground v.1.13,2014-11-26 12:54:00,
2014-11-26 05:04:00,44.4,43.1,30.32,SSW,196,0.0,0.0,95,0.00,,,0.00,Wunderground v.1.13,2014-11-26 13:04:00,
2014-11-26 05:14:00,44.5,43.2,30.32,SSW,195,0.0,0.0,95,0.00,,,0.00,Wunderground v.1.13,2014-11-26 13:14:00,
2014-11-26 05:19:00,44.5,43.2,30.32,SSW,196,0.0,0.0,95,0.00,,,0.00,Wunderground v.1.13,2014-11-26 13:19:00,
2014-11-26 05:29:00,44.5,43.2,30.32,SSW,196,0.0,0.0,95,0.00,,,0.00,Wunderground v.1.13,2014-11-26 13:29:00,
2014-11-26 05:34:00,44.5,43.2,30.31,SSW,196,0.0,0.0,95,0.00,,,0.00,Wunderground v.1.13,2014-11-26 13:34:00,
2014-11-26 05:44:00,44.6,43.3,30.31,SSW,195,0.0,0.0,95,0.00,,,0.00,Wunderground v.1.13,2014-11-26 13:44:00,
2014-11-26 05:54:00,44.6,43.3,30.31,SSW,196,0.0,0.0,95,0.00,,,0.00,Wunderground v.1.13,2014-11-26 13:54:00,
2014-11-26 06:04:00,44.6,43.0,30.31,SSW,195,0.0,0.0,94,0.00,,,0.00,Wunderground v.1.13,2014-11-26 14:04:00,
2014-11-26 06:14:00,44.7,43.1,30.31,SSW,196,0.0,0.0,94,0.00,,,0.00,Wunderground v.1.13,2014-11-26 14:14:00,
2014-11-26 06:19:00,44.8,43.5,30.31,SSW,195,0.0,0.0,95,0.00,,,0.00,Wunderground v.1.13,2014-11-26 14:19:00,
2014-11-26 06:29:00,45.0,43.7,30.30,SSW,196,0.0,0.0,95,0.00,,,0.00,Wunderground v.1.13,2014-11-26 14:29:00,
2014-11-26 06:39:00,45.0,43.7,30.30,SSW,195,0.0,0.0,95,0.00,,,0.00,Wunderground v.1.13,2014-11-26 14:39:00,
2014-11-26 06:44:00,45.0,43.7,30.30,SSW,195,0.0,0.0,95,0.00,,,0.00,Wunderground v.1.13,2014-11-26 14:44:00,
2014-11-26 06:54:00,45.0,43.7,30.29,SSW,195,0.0,0.0,95,0.00,,,0.00,Wunderground v.1.13,2014-11-26 14:54:00,